createdAt,value
2019-01-19T00:00:25.413Z,100318.34
2019-01-19T00:03:17.915Z,100322.02
2019-01-19T00:06:25.221Z,100318.53
2019-01-19T00:09:32.480Z,100314.56
2019-01-19T00:12:28.257Z,100317.36
2019-01-19T00:15:18.744Z,100312.23
2019-01-19T00:18:25.996Z,100311.21
2019-01-19T00:21:33.529Z,100305.90
2019-01-19T00:24:25.179Z,100307.09
2019-01-19T00:27:32.439Z,100309.57
2019-01-19T00:30:32.610Z,100305.58
2019-01-19T00:33:40.417Z,100307.41
2019-01-19T00:36:47.926Z,100303.92
2019-01-19T00:39:55.200Z,100301.77
2019-01-19T00:42:45.961Z,100301.78
2019-01-19T00:45:53.213Z,100299.78
2019-01-19T00:49:00.522Z,100296.48
2019-01-19T00:52:08.260Z,100297.82
2019-01-19T00:55:15.800Z,100288.52
2019-01-19T00:58:23.044Z,100284.84
2019-01-19T01:01:23.533Z,100291.67
2019-01-19T01:04:30.803Z,100285.38
2019-01-19T01:07:38.112Z,100287.03
2019-01-19T01:10:45.648Z,100293.85
2019-01-19T01:13:39.420Z,100289.70
2019-01-19T01:16:19.495Z,100293.83
2019-01-19T01:19:11.527Z,100291.01
2019-01-19T01:22:19.135Z,100292.19
2019-01-19T01:25:26.714Z,100288.55
2019-01-19T01:28:34.048Z,100290.03
2019-01-19T01:31:41.588Z,100289.22
2019-01-19T01:34:49.089Z,100286.05
2019-01-19T01:37:56.664Z,100284.17
2019-01-19T01:41:04.201Z,100284.81
2019-01-19T01:44:11.513Z,100286.28
2019-01-19T01:47:18.807Z,100289.44
2019-01-19T01:50:19.572Z,100287.27
2019-01-19T01:53:26.896Z,100287.45
2019-01-19T01:56:00.174Z,100274.63
2019-01-19T01:59:07.728Z,100273.42
2019-01-19T02:02:15.077Z,100271.44
2019-01-19T02:05:22.335Z,100271.27
2019-01-19T02:08:29.896Z,100273.94
2019-01-19T02:11:22.215Z,100265.95
2019-01-19T02:14:14.084Z,100263.64
2019-01-19T02:17:21.360Z,100266.81
2019-01-19T02:20:14.381Z,100258.37
2019-01-19T02:23:21.679Z,100252.70
2019-01-19T02:26:28.957Z,100253.76
2019-01-19T02:29:36.228Z,100250.14
2019-01-19T02:32:30.179Z,100247.64
2019-01-19T02:35:37.476Z,100247.65
2019-01-19T02:38:44.714Z,100241.53
2019-01-19T02:41:47.092Z,100243.55
2019-01-19T02:44:39.659Z,100233.09
2019-01-19T02:50:23.159Z,100228.47
2019-01-19T02:53:18.564Z,100223.48
2019-01-19T02:56:25.884Z,100227.98
2019-01-19T02:59:17.081Z,100221.53
2019-01-19T03:02:24.897Z,100221.20
2019-01-19T03:05:15.515Z,100214.08
2019-01-19T03:08:22.804Z,100209.94
2019-01-19T03:11:30.052Z,100203.30
2019-01-19T03:14:37.350Z,100200.83
2019-01-19T03:17:44.656Z,100203.30
2019-01-19T03:20:52.170Z,100197.83
2019-01-19T03:23:47.685Z,100199.34
2019-01-19T03:26:39.251Z,100193.02
2019-01-19T03:29:46.547Z,100190.39
2019-01-19T03:32:39.004Z,100189.38
2019-01-19T03:35:34.032Z,100188.89
2019-01-19T03:38:30.261Z,100185.41
2019-01-19T03:41:38.446Z,100187.88
2019-01-19T03:44:38.901Z,100184.25
2019-01-19T03:47:46.417Z,100182.24
2019-01-19T03:50:44.277Z,100180.73
2019-01-19T03:53:52.084Z,100183.91
2019-01-19T03:56:52.738Z,100175.09
2019-01-19T03:59:48.489Z,100177.92
2019-01-19T04:02:56.289Z,100173.11
2019-01-19T04:06:03.839Z,100173.77
2019-01-19T04:09:11.154Z,100170.46
2019-01-19T04:12:13.129Z,100170.13
2019-01-19T04:15:07.300Z,100173.13
2019-01-19T04:18:01.862Z,100164.52
2019-01-19T04:21:03.913Z,100168.99
2019-01-19T04:23:33.488Z,100172.14
2019-01-19T04:26:06.963Z,100167.02
2019-01-19T04:28:36.211Z,100169.14
2019-01-19T04:31:05.410Z,100168.83
2019-01-19T04:33:34.603Z,100167.98
2019-01-19T04:36:04.184Z,100169.48
2019-01-19T04:41:23.494Z,100172.46
2019-01-19T04:43:52.683Z,100165.17
2019-01-19T04:46:21.887Z,100168.66
2019-01-19T04:48:51.534Z,100164.85
2019-01-19T04:51:20.786Z,100158.86
2019-01-19T04:53:50.593Z,100162.84
2019-01-19T04:56:20.301Z,100156.89
2019-01-19T04:58:49.782Z,100162.52
2019-01-19T05:01:19.333Z,100163.53
2019-01-19T05:03:48.825Z,100161.02
2019-01-19T05:06:18.266Z,100156.89
2019-01-19T05:08:47.516Z,100154.88
2019-01-19T05:11:16.971Z,100152.73
2019-01-19T05:13:46.444Z,100152.89
2019-01-19T05:16:15.623Z,100147.59
2019-01-19T05:18:45.121Z,100155.87
2019-01-19T05:24:04.487Z,100153.41
2019-01-19T05:26:33.677Z,100150.24
2019-01-19T05:29:03.190Z,100151.25
2019-01-19T05:31:32.934Z,100152.23
2019-01-19T05:34:02.682Z,100148.42
2019-01-19T05:36:38.214Z,100144.63
2019-01-19T05:41:39.211Z,100140.95
2019-01-19T05:44:08.724Z,100140.30
2019-01-19T05:46:38.231Z,100145.78
2019-01-19T05:49:07.445Z,100142.81
2019-01-19T05:51:36.628Z,100142.12
2019-01-19T05:54:05.847Z,100149.27
2019-01-19T05:56:35.305Z,100149.27
2019-01-19T06:01:59.588Z,100147.27
2019-01-19T06:04:29.317Z,100143.64
2019-01-19T06:06:59.061Z,100147.27
2019-01-19T06:09:28.810Z,100153.91
2019-01-19T06:11:58.576Z,100149.75
2019-01-19T06:14:28.041Z,100150.42
2019-01-19T06:16:57.202Z,100149.09
2019-01-19T06:22:03.689Z,100139.30
2019-01-19T06:24:32.906Z,100134.84
2019-01-19T06:27:02.345Z,100134.66
2019-01-19T06:29:31.845Z,100134.67
2019-01-19T06:32:01.277Z,100131.67
2019-01-19T06:34:30.509Z,100132.34
2019-01-19T06:36:59.757Z,100132.02
2019-01-19T06:39:29.486Z,100132.19
2019-01-19T06:41:58.925Z,100127.88
2019-01-19T06:44:28.395Z,100132.34
2019-01-19T06:46:57.587Z,100129.34
2019-01-19T06:49:26.784Z,100131.19
2019-01-19T06:51:56.543Z,100125.71
2019-01-19T06:54:27.060Z,100130.34
2019-01-19T06:56:56.274Z,100130.38
2019-01-19T06:59:25.810Z,100135.01
2019-01-19T07:01:54.982Z,100131.52
2019-01-19T07:04:24.552Z,100137.32
2019-01-19T07:06:53.754Z,100126.20
2019-01-19T07:09:22.987Z,100135.34
2019-01-19T07:11:53.021Z,100132.20
2019-01-19T07:14:22.449Z,100138.47
2019-01-19T07:16:52.298Z,100133.02
2019-01-19T07:19:21.483Z,100126.71
2019-01-19T07:21:50.961Z,100133.34
2019-01-19T07:24:20.494Z,100129.03
2019-01-19T07:26:49.963Z,100133.67
2019-01-19T07:29:20.122Z,100121.58
2019-01-19T07:31:50.341Z,100122.55
2019-01-19T07:34:19.788Z,100120.39
2019-01-19T07:36:48.991Z,100122.37
2019-01-19T07:39:18.750Z,100127.18
2019-01-19T07:41:47.942Z,100130.66
2019-01-19T07:44:17.170Z,100127.33
2019-01-19T07:49:23.727Z,100129.95
2019-01-19T07:51:53.261Z,100122.28
2019-01-19T07:54:23.042Z,100129.22
2019-01-19T07:56:52.538Z,100130.22
2019-01-19T07:59:22.081Z,100124.55
2019-01-19T08:01:51.536Z,100134.16
2019-01-19T08:04:21.116Z,100131.83
2019-01-19T08:06:50.328Z,100128.47
2019-01-19T08:09:19.815Z,100137.91
2019-01-19T08:11:49.437Z,100128.09
2019-01-19T08:14:19.049Z,100126.73
2019-01-19T08:16:48.591Z,100131.69
2019-01-19T08:19:18.208Z,100134.48
2019-01-19T08:21:47.749Z,100134.73
2019-01-19T08:24:17.756Z,100138.16
2019-01-19T08:26:47.029Z,100137.45
2019-01-19T08:29:18.338Z,100131.56
2019-01-19T08:31:48.162Z,100127.34
2019-01-19T08:34:17.616Z,100128.45
2019-01-19T08:36:47.098Z,100141.38
2019-01-19T08:39:16.804Z,100128.14
2019-01-19T08:41:45.977Z,100122.61
2019-01-19T08:44:16.067Z,100123.71
2019-01-19T08:46:45.524Z,100119.27
2019-01-19T08:49:15.015Z,100117.11
2019-01-19T08:52:03.294Z,100116.13
2019-01-19T08:54:32.477Z,100108.28
2019-01-19T08:57:02.206Z,100110.20
2019-01-19T08:59:31.712Z,100108.88
2019-01-19T09:02:01.203Z,100111.09
2019-01-19T09:04:30.387Z,100111.67
2019-01-19T09:06:59.898Z,100100.28
2019-01-19T09:09:29.757Z,100095.92
2019-01-19T09:11:59.513Z,100098.03
2019-01-19T09:14:29.015Z,100091.52
2019-01-19T09:16:58.292Z,100089.49
2019-01-19T09:19:27.782Z,100088.80
2019-01-19T09:21:57.678Z,100084.19
2019-01-19T09:24:28.997Z,100086.66
2019-01-19T09:26:58.507Z,100082.88
2019-01-19T09:30:07.361Z,100086.66
2019-01-19T09:32:37.468Z,100090.40
2019-01-19T09:35:07.367Z,100090.75
2019-01-19T09:37:40.833Z,100096.08
2019-01-19T09:40:08.438Z,100103.72
2019-01-19T09:42:37.880Z,100099.66
2019-01-19T09:45:08.279Z,100106.06
2019-01-19T09:47:38.306Z,100112.06
2019-01-19T09:50:08.864Z,100110.41
2019-01-19T09:52:38.349Z,100118.87
2019-01-19T09:55:08.294Z,100111.87
2019-01-19T09:57:38.039Z,100116.20
2019-01-19T10:00:12.710Z,100115.08
2019-01-19T10:02:44.390Z,100106.74
2019-01-19T10:05:34.465Z,100113.67
2019-01-19T10:08:08.590Z,100112.64
2019-01-19T10:10:41.451Z,100108.41
2019-01-19T10:13:13.028Z,100110.94
2019-01-19T10:15:45.467Z,100106.77
2019-01-19T10:18:17.830Z,100102.49
2019-01-19T10:20:51.641Z,100099.13
2019-01-19T10:23:24.037Z,100095.17
2019-01-19T10:25:56.291Z,100091.13
2019-01-19T10:28:29.357Z,100091.13
2019-01-19T10:31:00.951Z,100092.19
2019-01-19T10:33:30.218Z,100092.95
2019-01-19T10:35:59.413Z,100090.96
2019-01-19T10:38:28.587Z,100087.48
2019-01-19T10:40:57.811Z,100088.75
2019-01-19T10:43:26.982Z,100083.00
2019-01-19T10:45:56.368Z,100080.58
2019-01-19T10:48:25.543Z,100078.79
2019-01-19T10:50:54.772Z,100077.25
2019-01-19T10:53:23.942Z,100072.36
2019-01-19T10:55:53.340Z,100068.48
2019-01-19T10:58:22.566Z,100067.02
2019-01-19T11:00:51.740Z,100062.30
2019-01-19T11:03:21.238Z,100072.40
2019-01-19T11:05:50.704Z,100064.63
2019-01-19T11:08:19.919Z,100067.09
2019-01-19T11:10:49.108Z,100059.08
2019-01-19T11:13:18.321Z,100063.21
2019-01-19T11:15:47.506Z,100060.66
2019-01-19T11:18:17.124Z,100045.30
2019-01-19T11:20:46.313Z,100052.02
2019-01-19T11:23:15.778Z,100049.71
2019-01-19T11:25:44.969Z,100040.45
2019-01-19T11:28:14.119Z,100047.04
2019-01-19T11:30:43.301Z,100039.35
2019-01-19T11:33:12.462Z,100040.78
2019-01-19T11:35:41.622Z,100032.28
2019-01-19T11:38:12.108Z,100026.41
2019-01-19T11:40:41.709Z,100033.20
2019-01-19T11:43:50.804Z,100029.91
2019-01-19T11:46:19.965Z,100023.14
2019-01-19T11:48:49.137Z,100024.62
2019-01-19T11:51:18.316Z,100020.94
2019-01-19T11:53:48.010Z,100021.34
2019-01-19T11:56:17.188Z,100016.44
2019-01-19T11:58:46.408Z,100022.91
2019-01-19T12:01:15.586Z,100025.82
2019-01-19T12:03:44.802Z,100024.89
2019-01-19T12:06:14.003Z,100021.33
2019-01-19T12:08:43.255Z,100016.80
2019-01-19T12:11:12.678Z,100019.58
2019-01-19T12:13:42.186Z,99999.65
2019-01-19T12:16:11.348Z,100002.94
2019-01-19T12:18:41.025Z,100001.55
2019-01-19T12:21:10.205Z,100005.67
2019-01-19T12:23:39.377Z,100002.17
2019-01-19T12:26:08.821Z,99999.28
2019-01-19T12:28:38.280Z,100002.28
2019-01-19T12:31:07.453Z,99997.77
2019-01-19T12:33:36.683Z,99997.44
2019-01-19T12:36:05.879Z,100000.01
2019-01-19T12:38:35.358Z,99987.13
2019-01-19T12:41:04.674Z,99982.72
2019-01-19T12:43:34.180Z,99985.40
2019-01-19T12:46:08.067Z,99978.81
2019-01-19T12:48:37.236Z,99978.09
2019-01-19T12:51:09.087Z,99982.72
2019-01-19T12:53:38.294Z,99973.14
2019-01-19T12:56:07.439Z,99973.97
2019-01-19T12:58:36.876Z,99967.89
2019-01-19T13:01:06.444Z,99963.98
2019-01-19T13:03:35.661Z,99963.77
2019-01-19T13:06:42.893Z,99959.25
2019-01-19T13:09:18.928Z,99957.91
2019-01-19T13:12:20.108Z,99954.32
2019-01-19T13:15:11.462Z,99949.17
2019-01-19T13:17:55.455Z,99938.02
2019-01-19T13:20:50.992Z,99942.86
2019-01-19T13:23:58.249Z,99943.17
2019-01-19T13:26:56.119Z,99939.44
2019-01-19T13:30:00.563Z,99941.59
2019-01-19T13:33:07.955Z,99939.09
2019-01-19T13:36:15.350Z,99936.25
2019-01-19T13:39:08.404Z,99946.23
2019-01-19T13:42:09.628Z,99947.39
2019-01-19T13:45:16.965Z,99946.75
2019-01-19T13:48:24.213Z,99950.42
2019-01-19T13:51:17.002Z,99950.88
2019-01-19T13:54:24.730Z,99948.38
2019-01-19T13:57:32.025Z,99946.19
2019-01-19T14:00:39.285Z,99944.47
2019-01-19T14:03:38.401Z,99956.44
2019-01-19T14:06:45.654Z,99949.14
2019-01-19T14:09:53.232Z,99948.42
2019-01-19T14:13:00.770Z,99953.91
2019-01-19T14:16:00.895Z,99957.33
2019-01-19T14:19:10.516Z,99960.38
2019-01-19T14:22:17.778Z,99958.73
2019-01-19T14:25:21.119Z,99957.55
2019-01-19T14:28:28.415Z,99956.64
2019-01-19T14:31:35.698Z,99951.48
2019-01-19T14:34:27.913Z,99954.06
2019-01-19T14:37:35.213Z,99948.78
2019-01-19T14:40:42.459Z,99940.98
2019-01-19T14:43:35.957Z,99937.02
2019-01-19T14:46:43.513Z,99934.41
2019-01-19T14:49:50.793Z,99923.00
2019-01-19T14:52:58.350Z,99915.57
2019-01-19T14:56:02.158Z,99910.86
2019-01-19T15:02:16.100Z,99906.03
2019-01-19T15:05:23.349Z,99908.48
2019-01-19T15:08:30.946Z,99897.98
2019-01-19T15:11:38.224Z,99890.78
2019-01-19T15:14:45.570Z,99896.51
2019-01-19T15:17:53.096Z,99887.14
2019-01-19T15:21:00.624Z,99888.53
2019-01-19T15:24:08.177Z,99885.43
2019-01-19T15:27:15.417Z,99890.03
2019-01-19T15:30:08.401Z,99886.22
2019-01-19T15:33:15.656Z,99873.84
2019-01-19T15:36:22.965Z,99876.91
2019-01-19T15:39:30.226Z,99875.88
2019-01-19T15:42:37.474Z,99876.73
2019-01-19T15:45:44.749Z,99878.52
2019-01-19T15:48:35.593Z,99872.73
2019-01-19T15:51:42.876Z,99868.78
2019-01-19T15:54:50.401Z,99867.54
2019-01-19T15:57:57.674Z,99865.21
2019-01-19T16:01:05.165Z,99863.70
2019-01-19T16:04:12.683Z,99855.49
2019-01-19T16:07:04.523Z,99826.94
2019-01-19T16:10:11.826Z,99846.22
2019-01-19T16:13:13.018Z,99846.20
2019-01-19T16:16:16.056Z,99839.27
2019-01-19T16:19:23.299Z,99837.78
2019-01-19T16:22:30.584Z,99832.86
2019-01-19T16:25:38.352Z,99821.12
2019-01-19T16:28:45.653Z,99796.13
2019-01-19T16:31:53.229Z,99809.70
2019-01-19T16:35:00.468Z,99800.89
2019-01-19T16:37:52.501Z,99792.87
2019-01-19T16:40:59.749Z,99791.23
2019-01-19T16:44:07.322Z,99793.68
2019-01-19T16:47:01.464Z,99791.44
2019-01-19T16:49:57.545Z,99792.14
2019-01-19T16:53:04.816Z,99783.19
2019-01-19T16:56:12.067Z,99778.92
2019-01-19T16:59:19.332Z,99776.80
2019-01-19T17:02:26.607Z,99772.92
2019-01-19T17:05:36.392Z,99771.13
2019-01-19T17:08:37.605Z,99771.09
2019-01-19T17:11:45.153Z,99768.98
2019-01-19T17:14:52.416Z,99766.88
2019-01-19T17:17:46.529Z,99763.73
2019-01-19T17:20:51.383Z,99766.30
2019-01-19T17:23:58.915Z,99769.61
2019-01-19T17:27:06.193Z,99758.48
2019-01-19T17:30:13.453Z,99761.61
2019-01-19T17:33:12.662Z,99763.10
2019-01-19T17:39:00.333Z,99749.09
2019-01-19T17:44:56.132Z,99752.03
2019-01-19T17:47:49.752Z,99756.31
2019-01-19T17:56:43.547Z,99760.73
2019-01-19T17:59:50.811Z,99761.83
2019-01-19T18:02:58.098Z,99762.52
2019-01-19T18:06:05.392Z,99770.59
2019-01-19T18:14:31.938Z,99771.08
2019-01-19T18:17:39.215Z,99765.96
2019-01-19T18:20:47.053Z,99769.96
2019-01-19T18:27:07.296Z,99769.91
2019-01-19T18:39:18.281Z,99769.62
2019-01-19T18:48:15.733Z,99759.78
2019-01-19T18:51:22.988Z,99757.62
2019-01-19T18:54:30.281Z,99761.45
2019-01-19T19:00:37.472Z,99757.52
2019-01-19T22:18:08.404Z,99768.95
2019-01-19T22:23:29.486Z,99770.44
2019-01-19T22:25:59.227Z,99776.06
2019-01-19T22:28:49.165Z,99767.64
2019-01-19T22:31:28.748Z,99782.88
2019-01-19T22:34:17.299Z,99781.91
2019-01-19T22:37:07.849Z,99775.77
2019-01-19T22:39:42.107Z,99779.13
2019-01-19T22:42:27.784Z,99783.25
2019-01-19T22:47:56.561Z,99776.11
2019-01-19T22:50:30.158Z,99782.55
2019-01-19T22:53:00.959Z,99781.57
2019-01-19T22:55:30.793Z,99779.88
2019-01-19T22:58:13.922Z,99776.41
2019-01-19T23:01:32.483Z,99784.52
2019-01-19T23:04:21.306Z,99781.19
2019-01-19T23:06:50.759Z,99777.77
2019-01-19T23:09:20.254Z,99782.08
2019-01-19T23:11:49.696Z,99777.81
2019-01-19T23:14:19.215Z,99768.53
2019-01-19T23:16:48.383Z,99768.05
2019-01-19T23:19:18.187Z,99767.88
2019-01-19T23:21:47.633Z,99775.02
2019-01-19T23:24:17.249Z,99776.33
